Time;durP1;ratioP1;P1;durP2;ratioP2;P2;SDS_P1;SDS_P2;PMS_P1;PMS_P2;Temp;Humidity;BMP_temperature;BMP_pressure;BME280_temperature;BME280_humidity;BME280_pressure;Samples;Min_cycle;Max_cycle;Signal;HPM_P1;HPM_P2
2024/04/04 00:00:14;;;;;;;7.53;2.70;;;;;;;12.21;44.88;93811.22;5044700;28;20029;-75
2024/04/04 00:02:40;;;;;;;7.55;2.47;;;;;;;12.18;44.57;93814.53;5043209;28;20024;-75
2024/04/04 00:05:05;;;;;;;7.43;3.30;;;;;;;12.18;44.31;93811.84;5044317;28;20040;-75
2024/04/04 00:07:31;;;;;;;4.55;2.28;;;;;;;12.23;44.26;93811.69;5044388;28;20216;-76
2024/04/04 00:09:57;;;;;;;8.38;2.25;;;;;;;12.26;44.37;93817.47;5044289;28;20024;-75
2024/04/04 00:12:25;;;;;;;8.85;2.42;;;;;;;12.30;44.11;93815.72;5044471;28;20032;-76
2024/04/04 00:14:50;;;;;;;6.82;1.83;;;;;;;12.33;44.48;93805.16;5044190;28;20299;-76
2024/04/04 00:17:16;;;;;;;8.43;2.35;;;;;;;12.37;44.45;93802.63;5044250;28;20021;-76
2024/04/04 00:19:41;;;;;;;10.98;2.13;;;;;;;12.41;44.77;93798.19;5044224;28;20021;-76
2024/04/04 00:22:07;;;;;;;9.75;2.90;;;;;;;12.41;45.40;93798.97;5044092;28;20029;-76
2024/04/04 00:24:32;;;;;;;8.57;2.35;;;;;;;12.43;45.81;93801.31;5043779;28;20025;-76
2024/04/04 00:26:58;;;;;;;19.20;2.55;;;;;;;12.43;46.05;93798.66;5042696;28;20037;-76
2024/04/04 00:29:24;;;;;;;7.47;2.40;;;;;;;12.43;46.03;93791.41;5044136;28;20032;-76
2024/04/04 00:31:50;;;;;;;5.07;2.05;;;;;;;12.42;46.19;93791.75;5043960;28;20049;-76
2024/04/04 00:34:15;;;;;;;10.88;2.55;;;;;;;12.43;46.09;93790.63;5043757;28;20017;-75
2024/04/04 00:36:40;;;;;;;7.40;2.38;;;;;;;12.42;46.21;93791.75;5043554;28;20052;-75
2024/04/04 00:39:06;;;;;;;9.73;2.90;;;;;;;12.43;46.20;93785.28;5043709;28;20037;-75
2024/04/04 00:41:31;;;;;;;6.70;2.88;;;;;;;12.39;45.69;93795.84;5043653;28;20037;-75
2024/04/04 00:43:57;;;;;;;8.38;2.53;;;;;;;12.36;46.02;93785.81;5043643;28;20352;-75
2024/04/04 00:46:23;;;;;;;7.75;2.67;;;;;;;12.35;46.51;93784.22;5043593;28;20037;-74
2024/04/04 00:48:49;;;;;;;10.27;2.50;;;;;;;12.31;46.39;93780.63;5043553;28;20036;-74
2024/04/04 00:51:14;;;;;;;5.85;2.13;;;;;;;12.28;46.60;93783.19;5043424;28;20037;-74
2024/04/04 00:53:41;;;;;;;6.95;3.13;;;;;;;12.30;46.54;93786.34;5043542;28;20029;-74
2024/04/04 00:56:06;;;;;;;9.45;1.85;;;;;;;12.33;45.93;93793.69;5043286;28;20029;-75
2024/04/04 00:58:33;;;;;;;5.75;2.65;;;;;;;12.26;45.82;93788.88;5043503;28;20323;-75
2024/04/04 01:00:59;;;;;;;6.43;2.78;;;;;;;12.26;44.62;93785.41;5043444;28;20026;-74
2024/04/04 01:03:24;;;;;;;13.63;2.85;;;;;;;12.15;42.63;93788.47;5043235;28;20089;-75
2024/04/04 01:05:49;;;;;;;4.50;2.00;;;;;;;12.09;42.73;93783.63;5043303;28;20061;-74
2024/04/04 01:08:16;;;;;;;5.28;1.80;;;;;;;12.04;43.19;93784.59;5043125;28;20060;-74
2024/04/04 01:10:41;;;;;;;14.05;2.42;;;;;;;11.96;43.79;93777.41;5042556;28;20307;-74
2024/04/04 01:13:06;;;;;;;5.32;2.67;;;;;;;12.00;44.18;93773.78;5043068;28;20029;-74
2024/04/04 01:15:32;;;;;;;7.18;1.92;;;;;;;12.00;44.73;93786.34;5043029;28;20065;-74
2024/04/04 01:17:58;;;;;;;4.80;1.77;;;;;;;11.95;44.68;93781.97;5042628;28;20080;-74
2024/04/04 01:20:25;;;;;;;5.40;1.55;;;;;;;11.97;44.55;93789.69;5043225;28;20048;-74
2024/04/04 01:22:50;;;;;;;6.28;2.08;;;;;;;11.93;44.36;93789.53;5043131;28;20231;-74
2024/04/04 01:25:16;;;;;;;7.40;1.55;;;;;;;11.92;44.25;93787.19;5042744;28;20029;-74
2024/04/04 01:27:41;;;;;;;3.63;1.30;;;;;;;11.93;44.24;93792.22;5042674;28;20025;-74
2024/04/04 01:30:07;;;;;;;4.75;1.70;;;;;;;11.91;41.80;93785.63;5042913;28;20025;-74
2024/04/04 01:32:32;;;;;;;5.55;1.50;;;;;;;11.96;41.17;93791.56;5042874;28;20018;-74
2024/04/04 01:34:58;;;;;;;4.93;1.33;;;;;;;11.97;40.28;93784.34;5042558;28;20092;-73
2024/04/04 01:37:23;;;;;;;2.70;1.23;;;;;;;12.00;39.28;93791.69;5042727;28;20386;-73
2024/04/04 01:39:49;;;;;;;6.32;1.50;;;;;;;11.99;41.49;93798.16;5042591;28;20098;-73
2024/04/04 01:42:14;;;;;;;6.10;1.85;;;;;;;11.95;38.81;93789.22;5042410;28;20029;-73
2024/04/04 01:44:39;;;;;;;4.85;1.52;;;;;;;11.92;39.28;93793.31;5042580;28;20021;-73
2024/04/04 01:47:05;;;;;;;4.13;1.25;;;;;;;11.85;39.22;93790.34;5042549;28;20040;-74
2024/04/04 01:49:30;;;;;;;4.40;1.15;;;;;;;11.82;39.49;93796.31;5042377;28;20017;-74
2024/04/04 01:51:56;;;;;;;5.18;1.40;;;;;;;11.80;39.43;93795.84;5042443;28;20027;-74
2024/04/04 01:54:21;;;;;;;4.07;1.27;;;;;;;11.86;39.56;93794.56;5042578;28;20361;-73
2024/04/04 01:56:46;;;;;;;4.00;1.35;;;;;;;11.89;39.39;93788.63;5042448;28;20093;-73
2024/04/04 01:59:12;;;;;;;5.38;1.15;;;;;;;11.92;39.68;93795.97;5042362;28;20025;-73
2024/04/04 02:01:37;;;;;;;4.03;1.30;;;;;;;11.92;39.63;93797.88;5042265;28;20097;-74
2024/04/04 02:04:03;;;;;;;5.55;1.38;;;;;;;11.96;40.01;93798.78;5042188;28;20033;-74
2024/04/04 02:06:28;;;;;;;7.20;1.67;;;;;;;11.97;41.42;93800.38;5042262;28;20025;-74
2024/04/04 02:08:54;;;;;;;5.30;1.27;;;;;;;11.94;41.42;93799.09;5042458;28;20032;-74
2024/04/04 02:11:19;;;;;;;9.10;1.52;;;;;;;11.94;41.51;93804.44;5042448;28;20044;-74
2024/04/04 02:13:46;;;;;;;7.93;1.23;;;;;;;11.96;42.39;93804.13;5042133;28;20022;-74
2024/04/04 02:16:12;;;;;;;6.75;1.48;;;;;;;11.94;42.80;93811.69;5042063;28;20067;-74
2024/04/04 02:18:37;;;;;;;5.38;1.40;;;;;;;11.87;42.88;93806.81;5042285;28;20021;-74
2024/04/04 02:21:04;;;;;;;2.95;1.42;;;;;;;11.81;43.46;93803.53;5042257;28;20092;-74
2024/04/04 02:23:30;;;;;;;5.07;1.38;;;;;;;11.82;43.20;93798.97;5046233;28;20227;-74
2024/04/04 02:25:56;;;;;;;6.55;1.63;;;;;;;11.84;43.22;93802.09;5046135;28;20021;-74
2024/04/04 02:28:22;;;;;;;6.38;2.53;;;;;;;11.81;43.61;93803.53;5046365;28;20193;-74
2024/04/04 02:30:47;;;;;;;7.20;1.73;;;;;;;11.81;43.70;93794.75;5046074;28;20024;-74
2024/04/04 02:33:13;;;;;;;3.45;1.30;;;;;;;11.79;44.23;93794.28;5046226;28;20246;-74
2024/04/04 02:35:39;;;;;;;5.13;1.60;;;;;;;11.74;44.08;93797.91;5045851;28;20291;-73
2024/04/04 02:38:06;;;;;;;4.30;1.50;;;;;;;11.76;43.73;93801.03;5045726;28;20017;-74
2024/04/04 02:40:31;;;;;;;4.60;1.20;;;;;;;11.74;43.95;93800.56;5045986;28;20021;-73
2024/04/04 02:42:56;;;;;;;7.53;1.50;;;;;;;11.71;44.37;93798.56;5045989;28;20096;-74
2024/04/04 02:45:22;;;;;;;3.58;1.30;;;;;;;11.67;44.18;93805.66;5045977;28;20292;-73
2024/04/04 02:47:48;;;;;;;6.60;1.52;;;;;;;11.60;44.36;93805.34;5045888;28;20067;-75
2024/04/04 02:50:14;;;;;;;8.15;1.42;;;;;;;11.59;44.31;93801.91;5045710;28;20028;-75
2024/04/04 02:52:39;;;;;;;4.03;1.60;;;;;;;11.58;44.55;93807.56;5045637;28;20022;-75
2024/04/04 02:55:05;;;;;;;6.65;1.77;;;;;;;11.54;45.29;93814.63;5045488;28;20022;-74
2024/04/04 02:57:31;;;;;;;5.97;1.35;;;;;;;11.48;45.25;93808.72;5045693;28;20021;-74
2024/04/04 02:59:56;;;;;;;6.13;1.95;;;;;;;11.41;45.30;93809.19;5045586;28;20338;-74
2024/04/04 03:02:21;;;;;;;5.78;2.97;;;;;;;11.33;45.65;93815.34;5045435;28;20097;-73
2024/04/04 03:04:47;;;;;;;4.85;2.90;;;;;;;11.27;46.53;93810.50;5045565;28;20092;-73
2024/04/04 03:07:12;;;;;;;7.95;3.80;;;;;;;11.22;46.15;93811.44;5045317;28;20032;-74
2024/04/04 03:09:37;;;;;;;8.30;3.63;;;;;;;11.22;45.98;93803.44;5045531;28;20017;-73
2024/04/04 03:12:03;;;;;;;6.32;3.28;;;;;;;11.20;45.97;93805.66;5045215;28;20067;-73
2024/04/04 03:14:32;;;;;;;7.15;3.08;;;;;;;11.18;46.10;93800.63;5045300;28;20017;-73
2024/04/04 03:16:57;;;;;;;9.07;3.25;;;;;;;11.17;46.25;93792.94;5045199;28;20021;-73
2024/04/04 03:19:22;;;;;;;7.35;2.50;;;;;;;11.18;46.42;93791.84;5045274;28;20029;-73
2024/04/04 03:21:48;;;;;;;9.52;2.22;;;;;;;11.15;45.66;93797.81;5045029;28;20029;-73
2024/04/04 03:24:14;;;;;;;5.25;1.77;;;;;;;11.15;45.75;93797.81;5045190;28;20347;-73
2024/04/04 03:26:39;;;;;;;4.43;1.90;;;;;;;11.14;45.74;93793.59;5045067;28;20094;-73
2024/04/04 03:29:05;;;;;;;14.68;2.05;;;;;;;11.11;45.83;93797.66;5045082;28;20101;-73
2024/04/04 03:31:30;;;;;;;5.35;2.05;;;;;;;11.13;45.60;93800.00;5043620;28;20033;-73
2024/04/04 03:33:56;;;;;;;12.35;2.53;;;;;;;11.14;45.95;93802.38;5044339;28;20028;-73
2024/04/04 03:36:22;;;;;;;10.20;2.15;;;;;;;11.07;45.96;93798.59;5044944;28;20037;-73
2024/04/04 03:38:47;;;;;;;6.60;1.83;;;;;;;11.03;45.92;93801.91;5044891;28;20029;-75
2024/04/04 03:41:12;;;;;;;4.38;1.80;;;;;;;11.04;46.13;93797.38;5044769;28;20036;-75
2024/04/04 03:43:38;;;;;;;7.95;3.40;;;;;;;11.02;46.44;93800.34;5044619;28;20041;-75
2024/04/04 03:46:04;;;;;;;4.60;2.28;;;;;;;10.95;46.67;93808.06;5044582;28;20048;-75
2024/04/04 03:48:30;;;;;;;7.18;2.38;;;;;;;10.93;47.05;93802.25;5044817;28;20048;-75
2024/04/04 03:50:55;;;;;;;7.30;1.88;;;;;;;10.90;47.68;93794.09;5044467;28;20025;-75
2024/04/04 03:53:21;;;;;;;6.75;1.80;;;;;;;10.82;47.93;93795.66;5044856;28;20296;-75
2024/04/04 03:55:46;;;;;;;6.53;1.98;;;;;;;10.88;47.75;93799.75;5044372;28;20025;-74
2024/04/04 03:58:12;;;;;;;12.85;2.22;;;;;;;10.92;47.83;93794.56;5044548;28;20084;-74
2024/04/04 04:00:38;;;;;;;4.85;1.60;;;;;;;10.96;48.18;93796.28;5044490;28;20025;-75
2024/04/04 04:03:04;;;;;;;6.05;2.08;;;;;;;11.00;48.16;93812.44;5044388;28;20327;-74
2024/04/04 04:05:30;;;;;;;8.68;2.45;;;;;;;10.98;47.47;93814.63;5044286;28;20018;-74
2024/04/04 04:07:56;;;;;;;12.73;3.90;;;;;;;10.99;47.38;93811.66;5044330;28;20025;-74
2024/04/04 04:10:27;;;;;;;7.10;2.90;;;;;;;11.03;47.21;93807.25;5044427;28;20048;-75
2024/04/04 04:12:53;;;;;;;13.07;2.72;;;;;;;11.05;47.32;93806.91;5043276;28;20021;-74
2024/04/04 04:15:20;;;;;;;9.07;3.08;;;;;;;11.09;47.73;93809.75;5044210;28;20096;-74
2024/04/04 04:17:46;;;;;;;8.32;2.10;;;;;;;11.14;47.21;93813.03;5043977;28;20320;-74
2024/04/04 04:22:55;;;;;;;9.95;2.03;;;;;;;11.15;46.40;93813.81;5044102;28;20100;-75
2024/04/04 04:25:21;;;;;;;4.82;1.58;;;;;;;11.20;44.54;93819.78;5044031;28;20029;-74
2024/04/04 04:27:46;;;;;;;6.30;2.20;;;;;;;11.19;45.53;93814.75;5044142;28;20022;-74
2024/04/04 04:30:12;;;;;;;11.95;2.65;;;;;;;11.22;45.75;93814.91;5043746;28;20204;-74
2024/04/04 04:32:38;;;;;;;5.28;2.40;;;;;;;11.30;47.12;93823.22;5043775;28;20021;-74
2024/04/04 04:35:04;;;;;;;12.75;2.33;;;;;;;11.36;47.41;93829.94;5043575;28;20079;-73
2024/04/04 04:37:30;;;;;;;12.13;1.92;;;;;;;11.36;47.24;93829.94;5043788;28;20281;-73
2024/04/04 04:39:55;;;;;;;7.85;2.13;;;;;;;11.39;46.87;93823.97;5043653;28;20053;-74
2024/04/04 04:42:20;;;;;;;7.32;2.08;;;;;;;11.42;47.19;93828.66;5043748;28;20049;-73
2024/04/04 04:44:46;;;;;;;8.25;2.20;;;;;;;11.43;48.29;93833.66;5042780;28;20260;-73
2024/04/04 04:47:11;;;;;;;6.97;1.40;;;;;;;11.47;47.58;93827.72;5043430;28;20021;-74
2024/04/04 04:49:36;;;;;;;8.75;2.30;;;;;;;11.52;45.90;93833.66;5043685;28;20020;-73
2024/04/04 04:52:02;;;;;;;7.15;2.00;;;;;;;11.56;44.60;93837.25;5043312;28;20067;-73
2024/04/04 04:54:27;;;;;;;8.55;1.67;;;;;;;11.60;43.97;93838.19;5043422;28;20229;-73
2024/04/04 04:56:53;;;;;;;12.73;2.20;;;;;;;11.69;45.16;93830.13;5043389;28;20024;-75
2024/04/04 04:59:18;;;;;;;12.45;2.38;;;;;;;11.74;44.09;93842.53;5043432;28;20021;-73
2024/04/04 05:01:43;;;;;;;7.90;2.63;;;;;;;11.79;44.64;93837.78;5043207;28;20096;-75
2024/04/04 05:04:09;;;;;;;9.85;2.20;;;;;;;11.87;44.79;93838.09;5042842;28;20100;-76
2024/04/04 05:06:34;;;;;;;19.33;3.95;;;;;;;11.95;45.38;93858.66;5042208;28;20234;-76
2024/04/04 05:09:00;;;;;;;8.10;1.95;;;;;;;11.87;44.77;93848.78;5041600;28;20033;-75
2024/04/04 05:11:25;;;;;;;19.20;2.80;;;;;;;11.79;45.58;93859.16;5043305;28;20063;-75
2024/04/04 05:13:52;;;;;;;26.13;3.35;;;;;;;11.74;44.85;93861.22;5043403;28;20025;-75
2024/04/04 05:16:18;;;;;;;8.85;2.70;;;;;;;11.69;44.58;93848.81;5043339;28;20025;-75
2024/04/04 05:18:43;;;;;;;12.88;2.50;;;;;;;11.69;44.41;93864.84;5043270;28;20052;-74
2024/04/04 05:21:09;;;;;;;16.98;2.85;;;;;;;11.65;44.65;93869.25;5042858;28;20334;-74
2024/04/04 05:23:34;;;;;;;20.00;3.80;;;;;;;11.61;45.37;93871.00;5041976;28;20104;-74
2024/04/04 05:26:00;;;;;;;21.02;3.45;;;;;;;11.62;46.46;93875.22;5043283;28;20020;-74
2024/04/04 05:28:26;;;;;;;25.20;4.55;;;;;;;11.64;47.50;93875.69;5043129;28;20076;-74
2024/04/04 05:30:54;;;;;;;29.33;3.78;;;;;;;11.69;47.98;93867.53;5043235;28;20028;-74
2024/04/04 05:33:20;;;;;;;14.98;3.47;;;;;;;11.67;48.48;93879.63;5043005;28;20018;-74
2024/04/04 05:35:46;;;;;;;34.05;4.53;;;;;;;11.58;48.58;93874.28;5042819;28;20078;-74
2024/04/04 05:38:12;;;;;;;17.00;4.18;;;;;;;11.54;49.05;93886.72;5041713;28;20029;-74
2024/04/04 05:40:37;;;;;;;24.65;4.13;;;;;;;11.52;49.13;93883.56;5042835;28;20024;-74
2024/04/04 05:43:03;;;;;;;24.15;4.88;;;;;;;11.50;49.24;93883.09;5042990;28;20017;-73
2024/04/04 05:45:28;;;;;;;22.10;4.78;;;;;;;11.47;49.83;93878.41;5042740;28;20063;-73
2024/04/04 05:47:53;;;;;;;17.65;4.72;;;;;;;11.50;49.80;93893.78;5042920;28;20017;-74
2024/04/04 05:50:19;;;;;;;15.52;4.65;;;;;;;11.49;48.43;93881.56;5042853;28;20022;-74
2024/04/04 05:52:44;;;;;;;19.15;4.22;;;;;;;11.52;47.95;93887.03;5042730;28;20026;-74
2024/04/04 05:55:11;;;;;;;31.48;4.82;;;;;;;11.56;48.85;93887.97;5042472;28;20067;-74
2024/04/04 05:57:36;;;;;;;20.27;4.45;;;;;;;11.60;48.99;93882.75;5042584;28;20308;-74
2024/04/04 06:00:02;;;;;;;15.90;5.47;;;;;;;11.61;49.50;93882.44;5042786;28;20021;-74
2024/04/04 06:02:28;;;;;;;21.13;3.67;;;;;;;11.66;49.79;93876.16;5042670;28;20022;-77
2024/04/04 06:04:53;;;;;;;27.33;4.85;;;;;;;11.70;50.07;93879.75;5042446;28;20025;-78
2024/04/04 06:07:20;;;;;;;21.48;4.55;;;;;;;11.74;50.41;93871.91;5042764;28;20045;-78
2024/04/04 06:09:45;;;;;;;27.73;5.05;;;;;;;11.77;50.68;93877.38;5042753;28;20049;-77
2024/04/04 06:12:11;;;;;;;33.95;7.22;;;;;;;11.80;49.08;93878.63;5043088;28;20040;-77
2024/04/04 06:14:38;;;;;;;19.08;4.00;;;;;;;11.83;48.13;93884.13;5042731;28;20040;-77
2024/04/04 06:17:06;;;;;;;17.23;5.07;;;;;;;11.87;50.00;93881.59;5042590;28;20032;-79
2024/04/04 06:19:32;;;;;;;25.25;6.72;;;;;;;11.91;50.63;93885.22;5042650;28;20311;-78
2024/04/04 06:21:58;;;;;;;27.80;5.80;;;;;;;11.90;51.63;93898.91;5042111;28;20033;-75
2024/04/04 06:24:23;;;;;;;21.70;5.43;;;;;;;11.91;51.42;93908.47;5042517;28;20024;-77
2024/04/04 06:26:49;;;;;;;32.70;5.72;;;;;;;11.94;51.12;93902.50;5042270;28;20311;-78
2024/04/04 06:29:19;;;;;;;27.70;5.47;;;;;;;11.91;50.36;93906.59;5042306;28;20033;-79
2024/04/04 06:31:45;;;;;;;38.53;4.93;;;;;;;11.94;49.44;93905.16;5042241;28;20026;-81
2024/04/04 06:34:10;;;;;;;32.75;5.75;;;;;;;12.01;49.60;93905.47;5042483;28;20247;-75
2024/04/04 06:36:36;;;;;;;31.58;6.13;;;;;;;12.11;49.85;93905.09;5041993;28;20108;-77
2024/04/04 06:39:03;;;;;;;18.42;4.47;;;;;;;12.22;49.94;93902.84;5042317;28;20108;-77
2024/04/04 06:41:32;;;;;;;23.95;6.22;;;;;;;12.34;49.41;93910.19;5040582;28;20021;-76
2024/04/04 06:43:58;;;;;;;39.45;5.43;;;;;;;12.43;48.91;93908.22;5042155;28;20252;-77
2024/04/04 06:46:23;;;;;;;26.77;5.72;;;;;;;12.53;48.64;93907.88;5042048;28;20024;-77
2024/04/04 06:48:49;;;;;;;24.98;5.15;;;;;;;12.67;48.23;93912.19;5041928;28;20083;-76
2024/04/04 06:51:14;;;;;;;28.13;5.15;;;;;;;12.76;48.36;93905.69;5041952;28;20044;-78
2024/04/04 06:53:40;;;;;;;33.85;5.32;;;;;;;12.91;47.35;93904.31;5042129;28;20067;-74
2024/04/04 06:56:05;;;;;;;39.28;5.05;;;;;;;13.01;47.00;93909.28;5041748;28;20192;-74
2024/04/04 06:58:31;;;;;;;23.60;5.55;;;;;;;13.07;46.32;93909.06;5041745;28;20079;-74
2024/04/04 07:00:57;;;;;;;25.90;5.70;;;;;;;13.17;44.77;93919.41;5041593;28;20069;-74
2024/04/04 07:03:23;;;;;;;14.52;4.80;;;;;;;13.24;44.82;93908.94;5042115;28;20259;-83
2024/04/04 07:05:48;;;;;;;27.88;5.10;;;;;;;13.34;44.92;93910.47;5042169;28;20028;-83
2024/04/04 07:08:14;;;;;;;13.63;4.30;;;;;;;13.45;43.02;93903.56;5044251;28;20489;-84
2024/04/04 07:10:39;;;;;;;23.10;4.93;;;;;;;13.53;43.31;93915.31;5045990;28;20088;-82
2024/04/04 07:13:05;;;;;;;19.95;3.72;;;;;;;13.65;43.02;93910.78;5045848;28;20125;-83
2024/04/04 07:15:31;;;;;;;16.58;3.45;;;;;;;13.78;40.93;93911.63;5046089;28;20053;-82
2024/04/04 07:17:57;;;;;;;12.93;4.00;;;;;;;13.89;41.04;93916.53;5045920;28;20032;-82
2024/04/04 07:20:23;;;;;;;22.42;3.40;;;;;;;13.99;40.41;93916.88;5045809;28;20037;-82
2024/04/04 07:22:48;;;;;;;9.48;1.90;;;;;;;14.14;33.98;93914.69;5045612;28;20331;-81
2024/04/04 07:25:15;;;;;;;11.40;1.77;;;;;;;14.17;31.91;93911.34;5044175;28;20232;-80
2024/04/04 07:27:41;;;;;;;5.03;1.35;;;;;;;14.23;31.74;93910.00;5045398;28;20029;-87
2024/04/04 07:30:07;;;;;;;3.85;1.67;;;;;;;14.34;32.51;93904.97;5045917;28;20097;-88
2024/04/04 07:32:33;;;;;;;8.45;1.83;;;;;;;14.55;31.92;93927.09;5046638;28;20196;-89
2024/04/04 07:35:01;;;;;;;9.18;1.55;;;;;;;14.71;31.46;93913.03;5045283;28;20028;-88
2024/04/04 07:37:27;;;;;;;3.20;1.65;;;;;;;14.72;31.17;93904.66;5044661;28;20044;-89
2024/04/04 07:39:53;;;;;;;8.27;1.85;;;;;;;14.84;31.09;93911.91;5044265;28;20060;-89
2024/04/04 07:42:19;;;;;;;8.95;1.67;;;;;;;14.88;31.14;93915.47;5045482;28;20025;-89
2024/04/04 07:44:45;;;;;;;8.32;1.63;;;;;;;14.92;31.46;93913.69;5045066;28;20071;-90
2024/04/04 07:47:11;;;;;;;9.02;1.70;;;;;;;14.99;31.25;93908.50;5045833;28;20036;-90
2024/04/04 07:49:36;;;;;;;8.25;1.63;;;;;;;15.08;30.53;93910.28;5044472;28;20021;-90
2024/04/04 07:52:02;;;;;;;16.73;1.83;;;;;;;15.18;30.54;93917.84;5045544;28;20022;-90
2024/04/04 07:54:27;;;;;;;10.32;1.95;;;;;;;15.19;30.16;93919.41;5044307;28;20037;-89
2024/04/04 07:56:52;;;;;;;7.25;1.60;;;;;;;15.18;30.55;93921.34;5045542;28;20021;-89
2024/04/04 07:59:18;;;;;;;11.20;1.60;;;;;;;15.18;30.92;93923.22;5045476;28;20064;-89
2024/04/04 08:01:44;;;;;;;5.88;1.20;;;;;;;15.12;31.77;93906.59;5044706;28;20096;-91
2024/04/04 08:04:09;;;;;;;4.70;1.63;;;;;;;15.11;31.71;93914.97;5045549;28;20033;-89
2024/04/04 08:06:35;;;;;;;9.25;1.98;;;;;;;15.10;31.76;93916.88;5045496;28;20067;-88
2024/04/04 08:09:01;;;;;;;5.95;1.55;;;;;;;15.19;31.62;93906.78;5045563;28;20028;-88
2024/04/04 08:11:26;;;;;;;10.82;1.83;;;;;;;15.27;31.65;93902.38;5045083;28;20065;-86
2024/04/04 08:13:52;;;;;;;6.18;1.55;;;;;;;15.39;31.76;93926.50;5045190;28;20059;-87
2024/04/04 08:16:17;;;;;;;7.30;1.60;;;;;;;15.37;31.96;93912.66;5043475;28;20017;-87
2024/04/04 08:18:43;;;;;;;8.65;1.45;;;;;;;15.51;31.50;93914.16;5044800;28;20071;-86
2024/04/04 08:21:09;;;;;;;4.80;1.63;;;;;;;15.46;31.77;93912.50;5044749;28;20085;-86
2024/04/04 08:23:34;;;;;;;4.43;1.50;;;;;;;15.55;31.95;93928.44;5043104;28;20077;-86
2024/04/04 08:26:00;;;;;;;7.60;1.80;;;;;;;15.55;31.98;93918.50;5044527;28;20214;-85
2024/04/04 08:28:27;;;;;;;8.95;1.38;;;;;;;15.63;32.68;93906.03;5044802;28;20211;-86
2024/04/04 08:31:00;;;;;;;5.88;1.13;;;;;;;15.62;32.06;93923.28;5043978;28;20028;-87
2024/04/04 08:33:26;;;;;;;7.43;1.25;;;;;;;15.60;31.69;93910.19;5044653;28;20022;-86
2024/04/04 08:35:52;;;;;;;3.25;1.23;;;;;;;15.61;32.47;93914.44;5045090;28;20105;-86
2024/04/04 08:38:17;;;;;;;6.18;2.42;;;;;;;15.64;32.60;93910.28;5044603;28;20028;-87
2024/04/04 08:40:43;;;;;;;7.75;1.50;;;;;;;15.74;32.81;93915.19;5044363;28;20078;-87
2024/04/04 08:43:09;;;;;;;9.85;1.88;;;;;;;15.74;32.76;93903.66;5044397;28;20093;-86
2024/04/04 08:45:46;;;;;;;9.30;1.73;;;;;;;15.79;32.36;93917.66;5043437;28;20096;-87
2024/04/04 08:48:14;;;;;;;11.02;1.77;;;;;;;15.86;32.67;93927.03;5044365;28;20027;-87
2024/04/04 08:50:45;;;;;;;7.53;1.40;;;;;;;15.79;31.89;93930.28;5043172;28;20040;-87
2024/04/04 08:53:11;;;;;;;8.25;1.63;;;;;;;15.70;32.23;93929.63;5044499;28;20296;-85
2024/04/04 08:55:38;;;;;;;7.53;2.00;;;;;;;15.72;32.95;93906.69;5043939;28;20217;-83
2024/04/04 08:58:03;;;;;;;6.72;2.03;;;;;;;15.82;32.75;93906.19;5043662;28;20021;-83
2024/04/04 09:00:29;;;;;;;4.90;1.25;;;;;;;15.87;32.02;93915.13;5043958;28;20088;-85
2024/04/04 09:02:54;;;;;;;17.42;2.90;;;;;;;15.87;31.99;93913.22;5044002;28;20323;-85
2024/04/04 09:05:19;;;;;;;7.57;1.67;;;;;;;16.01;32.71;93910.13;5044175;28;20307;-85
2024/04/04 09:07:45;;;;;;;5.75;1.25;;;;;;;16.02;32.90;93912.47;5044250;28;20032;-85
2024/04/04 09:10:14;;;;;;;9.70;1.67;;;;;;;16.00;32.90;93911.25;5043898;28;20045;-86
2024/04/04 09:12:40;;;;;;;8.27;1.63;;;;;;;16.02;32.67;93914.38;5044233;28;20021;-84
2024/04/04 09:15:06;;;;;;;7.93;1.52;;;;;;;16.11;33.64;93916.88;5044283;28;20021;-84
2024/04/04 09:17:31;;;;;;;7.53;1.30;;;;;;;16.16;33.70;93914.72;5043823;28;20254;-84
2024/04/04 09:19:57;;;;;;;5.03;1.50;;;;;;;16.10;33.60;93920.69;5042690;28;20302;-86
2024/04/04 09:22:24;;;;;;;12.93;1.77;;;;;;;16.02;34.64;93903.63;5043987;28;20017;-84
2024/04/04 09:24:49;;;;;;;5.65;1.20;;;;;;;16.12;34.54;93900.41;5043957;28;20017;-85
2024/04/04 09:27:19;;;;;;;6.13;1.30;;;;;;;16.20;33.61;93912.09;5042315;28;20028;-84
2024/04/04 09:29:50;;;;;;;2.78;1.00;;;;;;;16.30;33.71;93918.88;5042112;28;20057;-84
2024/04/04 09:32:18;;;;;;;6.78;1.27;;;;;;;16.15;32.57;93904.31;5043255;28;20033;-83
2024/04/04 09:34:45;;;;;;;4.43;1.30;;;;;;;16.11;32.09;93884.63;5043085;28;20021;-84
2024/04/04 09:37:15;;;;;;;5.32;1.20;;;;;;;16.08;32.03;93904.13;5042039;28;20067;-83
2024/04/04 09:39:41;;;;;;;4.82;1.65;;;;;;;16.09;32.87;93895.72;5043641;28;20255;-84
2024/04/04 09:42:08;;;;;;;5.05;1.20;;;;;;;16.09;32.07;93898.41;5043481;28;20116;-84
2024/04/04 09:44:34;;;;;;;9.43;1.85;;;;;;;16.17;32.63;93889.38;5043250;28;20021;-84
2024/04/04 09:47:03;;;;;;;4.80;1.38;;;;;;;16.33;33.33;93896.69;5043521;28;20032;-85
2024/04/04 09:49:30;;;;;;;5.53;1.48;;;;;;;16.41;31.08;93898.41;5042332;28;20094;-84
2024/04/04 09:51:56;;;;;;;4.82;1.60;;;;;;;16.51;30.86;93899.81;5043283;28;20091;-84
2024/04/04 09:54:22;;;;;;;4.38;1.17;;;;;;;16.56;30.61;93905.66;5043290;28;20067;-85
2024/04/04 09:56:49;;;;;;;3.60;1.10;;;;;;;16.49;30.79;93892.06;5042075;28;20033;-84
2024/04/04 09:59:14;;;;;;;7.65;1.50;;;;;;;16.47;31.08;93897.03;5043385;28;20021;-85
2024/04/04 10:01:40;;;;;;;36.33;3.05;;;;;;;16.42;31.06;93873.88;5041611;28;20075;-85
2024/04/04 10:04:06;;;;;;;4.78;1.13;;;;;;;16.55;31.34;93887.22;5042676;28;20038;-85
2024/04/04 10:06:35;;;;;;;9.45;1.30;;;;;;;16.73;31.43;93887.59;5043606;28;20021;-84
2024/04/04 10:09:20;;;;;;;2.40;0.80;;;;;;;16.77;30.02;93875.00;5042285;28;20327;-80
2024/04/04 10:11:47;;;;;;;6.90;1.38;;;;;;;16.87;31.03;93882.53;5042176;28;20017;-81
2024/04/04 10:14:14;;;;;;;5.90;1.60;;;;;;;16.96;30.87;93875.06;5041122;28;20017;-82
2024/04/04 10:16:44;;;;;;;5.72;1.30;;;;;;;17.08;30.11;93866.06;5042223;28;20053;-82
2024/04/04 10:19:14;;;;;;;3.20;1.52;;;;;;;17.19;29.19;93875.13;5042255;28;20018;-83
2024/04/04 10:21:40;;;;;;;5.05;1.05;;;;;;;17.21;29.55;93874.78;5042243;28;20096;-80
2024/04/04 10:24:07;;;;;;;8.73;1.58;;;;;;;17.25;29.52;93891.81;5042106;28;20024;-79
2024/04/04 10:26:33;;;;;;;3.75;1.38;;;;;;;17.32;29.74;93875.78;5042002;28;20021;-79
2024/04/04 10:28:58;;;;;;;4.68;1.08;;;;;;;17.32;28.91;93875.78;5041646;28;20323;-79
2024/04/04 10:31:24;;;;;;;4.18;1.60;;;;;;;17.33;29.72;93888.13;5042331;28;20037;-80
2024/04/04 10:34:04;;;;;;;9.43;1.80;;;;;;;17.17;29.48;93882.03;5042187;28;20092;-80
2024/04/04 10:36:39;;;;;;;3.97;1.42;;;;;;;17.04;30.17;93892.91;5041791;28;20112;-79
2024/04/04 10:39:09;;;;;;;4.43;1.27;;;;;;;17.20;29.82;93875.94;5041891;28;20021;-79
2024/04/04 10:41:36;;;;;;;10.38;1.95;;;;;;;17.42;30.23;93886.00;5042064;28;20021;-80
2024/04/04 10:44:11;;;;;;;2.40;0.95;;;;;;;17.69;29.36;93871.84;5045548;28;20029;-80
2024/04/04 10:46:43;;;;;;;2.60;0.90;;;;;;;17.54;29.67;93886.97;5045981;28;20025;-78
2024/04/04 10:49:11;;;;;;;5.90;1.42;;;;;;;17.44;30.26;93886.44;5046091;28;20040;-77
2024/04/04 10:51:37;;;;;;;5.75;1.73;;;;;;;17.38;30.22;93892.44;5045759;28;20063;-77
2024/04/04 10:54:03;;;;;;;2.47;1.02;;;;;;;17.39;30.33;93886.69;5044596;28;20025;-77
2024/04/04 10:56:30;;;;;;;10.10;1.40;;;;;;;17.47;29.87;93886.84;5045878;28;20380;-77
2024/04/04 10:58:57;;;;;;;3.92;1.20;;;;;;;17.67;29.48;93892.97;5045720;28;20017;-77
2024/04/04 11:01:23;;;;;;;9.10;1.52;;;;;;;17.73;29.89;93889.66;5045646;28;20041;-77
2024/04/04 11:03:51;;;;;;;2.05;1.00;;;;;;;17.86;30.13;93890.28;5045357;28;20025;-77
2024/04/04 11:06:17;;;;;;;4.40;1.25;;;;;;;18.07;29.63;93886.41;5045511;28;20025;-77
2024/04/04 11:08:44;;;;;;;8.32;1.25;;;;;;;18.13;29.15;93890.34;5045531;28;20040;-77
2024/04/04 11:11:10;;;;;;;3.13;1.02;;;;;;;18.10;28.96;93891.09;5045272;28;20037;-77
2024/04/04 11:13:36;;;;;;;11.05;1.95;;;;;;;17.92;29.53;93878.06;5045558;28;20025;-77
2024/04/04 11:16:02;;;;;;;4.55;0.90;;;;;;;17.80;29.78;93872.81;5045429;28;20227;-75
2024/04/04 11:18:28;;;;;;;15.10;1.20;;;;;;;17.83;28.98;93883.69;5045342;28;20084;-77
2024/04/04 11:20:54;;;;;;;6.15;1.50;;;;;;;17.91;29.55;93883.81;5045254;28;20029;-81
2024/04/04 11:23:19;;;;;;;6.95;2.92;;;;;;;17.99;29.20;93888.19;5045135;28;20028;-80
2024/04/04 11:25:45;;;;;;;3.55;0.82;;;;;;;17.91;28.81;93873.03;5045075;28;20226;-79
2024/04/04 11:28:10;;;;;;;6.63;1.60;;;;;;;18.00;29.10;93877.06;5045134;28;20036;-80